sensor_id;sensor_type;location;lat;lon;timestamp;pressure;altitude;pressure_sealevel;temperature;humidity
59829;BME280;45708;51.848;107.620;2022-10-16T00:04:42;96584.41;;;1.15;67.12
59829;BME280;45708;51.848;107.620;2022-10-16T00:09:43;96600.63;;;3.42;61.99
59829;BME280;45708;51.848;107.620;2022-10-16T00:14:44;96592.69;;;5.02;58.55
59829;BME280;45708;51.848;107.620;2022-10-16T00:19:45;96595.75;;;5.86;56.66
59829;BME280;45708;51.848;107.620;2022-10-16T00:24:45;96593.44;;;6.27;54.79
59829;BME280;45708;51.848;107.620;2022-10-16T00:29:50;96602.25;;;6.86;53.38
59829;BME280;45708;51.848;107.620;2022-10-16T00:34:51;96604.00;;;7.36;52.74
59829;BME280;45708;51.848;107.620;2022-10-16T00:39:52;96602.94;;;8.75;50.55
59829;BME280;45708;51.848;107.620;2022-10-16T00:44:55;96603.50;;;10.39;46.33
59829;BME280;45708;51.848;107.620;2022-10-16T00:55:10;96575.31;;;6.92;50.78
59829;BME280;45708;51.848;107.620;2022-10-16T01:00:14;96612.72;;;7.28;50.22
59829;BME280;45708;51.848;107.620;2022-10-16T01:05:15;96612.53;;;8.60;46.41
59829;BME280;45708;51.848;107.620;2022-10-16T01:15:37;96615.91;;;10.53;42.39
59829;BME280;45708;51.848;107.620;2022-10-16T01:21:12;96635.25;;;6.54;46.61
59829;BME280;45708;51.848;107.620;2022-10-16T01:26:50;96637.13;;;4.00;52.38
59829;BME280;45708;51.848;107.620;2022-10-16T01:32:00;96645.19;;;2.51;54.60
59829;BME280;45708;51.848;107.620;2022-10-16T01:37:07;96659.44;;;2.16;56.40
59829;BME280;45708;51.848;107.620;2022-10-16T01:42:12;96656.94;;;2.35;55.29
59829;BME280;45708;51.848;107.620;2022-10-16T01:47:17;96670.09;;;2.34;55.47
59829;BME280;45708;51.848;107.620;2022-10-16T01:52:24;96668.91;;;2.17;56.01
59829;BME280;45708;51.848;107.620;2022-10-16T01:57:27;96674.94;;;2.18;56.57
59829;BME280;45708;51.848;107.620;2022-10-16T02:02:30;96666.03;;;2.41;56.14
59829;BME280;45708;51.848;107.620;2022-10-16T02:07:31;96671.91;;;2.64;55.88
59829;BME280;45708;51.848;107.620;2022-10-16T02:12:36;96666.59;;;2.44;55.94
59829;BME280;45708;51.848;107.620;2022-10-16T02:17:38;96670.38;;;2.61;56.63
59829;BME280;45708;51.848;107.620;2022-10-16T02:22:43;96676.81;;;2.57;56.39
59829;BME280;45708;51.848;107.620;2022-10-16T02:27:56;96672.31;;;2.38;57.15
59829;BME280;45708;51.848;107.620;2022-10-16T02:33:00;96681.63;;;2.31;57.40
59829;BME280;45708;51.848;107.620;2022-10-16T02:38:03;96669.44;;;2.11;57.59
59829;BME280;45708;51.848;107.620;2022-10-16T02:43:05;96668.16;;;1.85;58.54
59829;BME280;45708;51.848;107.620;2022-10-16T02:48:07;96671.06;;;2.12;58.11
59829;BME280;45708;51.848;107.620;2022-10-16T02:53:07;96659.53;;;2.05;57.72
59829;BME280;45708;51.848;107.620;2022-10-16T02:58:09;96644.47;;;2.18;57.98
59829;BME280;45708;51.848;107.620;2022-10-16T03:03:10;96654.41;;;2.24;57.91
59829;BME280;45708;51.848;107.620;2022-10-16T03:08:11;96657.47;;;2.29;57.70
59829;BME280;45708;51.848;107.620;2022-10-16T03:13:12;96644.31;;;2.10;58.33
59829;BME280;45708;51.848;107.620;2022-10-16T03:18:14;96652.25;;;2.08;57.98
59829;BME280;45708;51.848;107.620;2022-10-16T03:23:15;96644.00;;;2.24;57.61
59829;BME280;45708;51.848;107.620;2022-10-16T03:28:15;96636.94;;;2.46;57.21
59829;BME280;45708;51.848;107.620;2022-10-16T03:33:16;96646.25;;;2.69;57.46
59829;BME280;45708;51.848;107.620;2022-10-16T03:38:17;96633.72;;;2.63;56.84
59829;BME280;45708;51.848;107.620;2022-10-16T03:43:18;96638.19;;;2.91;56.63
59829;BME280;45708;51.848;107.620;2022-10-16T03:48:19;96631.38;;;3.10;56.49
59829;BME280;45708;51.848;107.620;2022-10-16T03:53:20;96634.81;;;3.20;56.10
59829;BME280;45708;51.848;107.620;2022-10-16T03:58:21;96617.94;;;3.43;55.77
59829;BME280;45708;51.848;107.620;2022-10-16T04:03:22;96624.25;;;3.60;55.46
59829;BME280;45708;51.848;107.620;2022-10-16T04:08:23;96616.53;;;3.78;54.85
59829;BME280;45708;51.848;107.620;2022-10-16T04:13:24;96615.56;;;3.79;53.42
59829;BME280;45708;51.848;107.620;2022-10-16T04:18:24;96612.72;;;3.62;54.27
59829;BME280;45708;51.848;107.620;2022-10-16T04:23:25;96606.50;;;3.73;54.00
59829;BME280;45708;51.848;107.620;2022-10-16T04:28:26;96609.13;;;3.83;54.12
59829;BME280;45708;51.848;107.620;2022-10-16T04:33:27;96602.47;;;3.98;53.83
59829;BME280;45708;51.848;107.620;2022-10-16T04:38:29;96588.94;;;4.12;53.66
59829;BME280;45708;51.848;107.620;2022-10-16T04:43:30;96579.56;;;4.19;52.22
59829;BME280;45708;51.848;107.620;2022-10-16T04:48:31;96585.72;;;3.91;52.79
59829;BME280;45708;51.848;107.620;2022-10-16T04:53:32;96566.97;;;4.05;52.29
59829;BME280;45708;51.848;107.620;2022-10-16T04:58:33;96555.41;;;3.98;53.23
59829;BME280;45708;51.848;107.620;2022-10-16T05:03:34;96566.09;;;4.14;52.44
59829;BME280;45708;51.848;107.620;2022-10-16T05:08:36;96555.03;;;4.30;52.17
59829;BME280;45708;51.848;107.620;2022-10-16T05:13:37;96543.94;;;4.46;51.54
59829;BME280;45708;51.848;107.620;2022-10-16T05:18:37;96544.03;;;4.54;50.75
59829;BME280;45708;51.848;107.620;2022-10-16T05:23:38;96531.84;;;4.45;51.39
59829;BME280;45708;51.848;107.620;2022-10-16T05:28:39;96529.16;;;4.54;51.22
59829;BME280;45708;51.848;107.620;2022-10-16T05:33:40;96528.16;;;4.65;50.29
59829;BME280;45708;51.848;107.620;2022-10-16T05:38:42;96515.13;;;4.73;50.21
59829;BME280;45708;51.848;107.620;2022-10-16T05:43:42;96514.25;;;4.65;49.14
59829;BME280;45708;51.848;107.620;2022-10-16T05:48:43;96509.88;;;4.28;50.41
59829;BME280;45708;51.848;107.620;2022-10-16T05:53:44;96502.47;;;4.23;50.28
59829;BME280;45708;51.848;107.620;2022-10-16T05:58:45;96504.88;;;4.35;50.15
59829;BME280;45708;51.848;107.620;2022-10-16T06:03:46;96494.28;;;4.81;49.38
59829;BME280;45708;51.848;107.620;2022-10-16T06:08:48;96490.75;;;5.26;48.20
59829;BME280;45708;51.848;107.620;2022-10-16T06:13:55;96496.81;;;5.09;47.88
59829;BME280;45708;51.848;107.620;2022-10-16T06:18:56;96491.34;;;5.20;47.25
59829;BME280;45708;51.848;107.620;2022-10-16T06:23:58;96478.06;;;5.39;46.80
59829;BME280;45708;51.848;107.620;2022-10-16T06:28:59;96479.44;;;5.43;47.39
59829;BME280;45708;51.848;107.620;2022-10-16T06:34:00;96471.72;;;5.42;47.20
59829;BME280;45708;51.848;107.620;2022-10-16T06:39:01;96461.94;;;5.52;47.14
59829;BME280;45708;51.848;107.620;2022-10-16T06:44:05;96452.78;;;5.30;46.93
59829;BME280;45708;51.848;107.620;2022-10-16T06:49:06;96452.44;;;5.25;47.38
59829;BME280;45708;51.848;107.620;2022-10-16T06:54:07;96457.22;;;5.12;46.68
59829;BME280;45708;51.848;107.620;2022-10-16T06:59:08;96442.28;;;5.04;47.09
59829;BME280;45708;51.848;107.620;2022-10-16T07:04:09;96444.91;;;5.04;46.88
59829;BME280;45708;51.848;107.620;2022-10-16T07:09:10;96440.81;;;5.02;46.95
59829;BME280;45708;51.848;107.620;2022-10-16T07:14:18;96433.16;;;4.91;46.18
59829;BME280;45708;51.848;107.620;2022-10-16T07:19:19;96434.72;;;4.48;47.43
59829;BME280;45708;51.848;107.620;2022-10-16T07:24:20;96429.97;;;4.16;47.76
59829;BME280;45708;51.848;107.620;2022-10-16T07:29:21;96423.78;;;4.35;47.61
59829;BME280;45708;51.848;107.620;2022-10-16T07:34:22;96425.09;;;4.66;47.24
59829;BME280;45708;51.848;107.620;2022-10-16T07:39:23;96419.59;;;4.95;46.19
59829;BME280;45708;51.848;107.620;2022-10-16T07:44:24;96401.59;;;5.18;46.28
59829;BME280;45708;51.848;107.620;2022-10-16T07:49:25;96396.22;;;5.19;46.07
59829;BME280;45708;51.848;107.620;2022-10-16T07:54:25;96403.94;;;5.21;45.38
59829;BME280;45708;51.848;107.620;2022-10-16T07:59:26;96395.31;;;5.03;45.67
59829;BME280;45708;51.848;107.620;2022-10-16T08:04:27;96399.56;;;5.04;45.78
59829;BME280;45708;51.848;107.620;2022-10-16T08:09:28;96396.34;;;4.92;45.81
59829;BME280;45708;51.848;107.620;2022-10-16T08:14:29;96399.59;;;4.68;45.85
59829;BME280;45708;51.848;107.620;2022-10-16T08:19:30;96396.47;;;4.47;46.37
59829;BME280;45708;51.848;107.620;2022-10-16T08:24:31;96386.41;;;4.60;46.19
59829;BME280;45708;51.848;107.620;2022-10-16T08:29:32;96377.16;;;4.48;46.26
59829;BME280;45708;51.848;107.620;2022-10-16T08:34:33;96381.44;;;4.49;46.32
59829;BME280;45708;51.848;107.620;2022-10-16T08:39:33;96379.47;;;4.51;46.44
59829;BME280;45708;51.848;107.620;2022-10-16T08:50:12;96371.63;;;4.51;46.58
59829;BME280;45708;51.848;107.620;2022-10-16T08:55:33;96378.19;;;4.55;46.82
59829;BME280;45708;51.848;107.620;2022-10-16T09:00:38;96373.22;;;4.44;46.80
59829;BME280;45708;51.848;107.620;2022-10-16T09:06:05;96366.25;;;4.35;46.93
59829;BME280;45708;51.848;107.620;2022-10-16T09:16:37;96370.00;;;4.50;46.85
59829;BME280;45708;51.848;107.620;2022-10-16T09:21:45;96368.13;;;4.24;47.59
59829;BME280;45708;51.848;107.620;2022-10-16T09:26:47;96364.69;;;3.96;48.38
59829;BME280;45708;51.848;107.620;2022-10-16T09:31:48;96347.25;;;3.70;48.55
59829;BME280;45708;51.848;107.620;2022-10-16T09:36:49;96353.91;;;3.54;48.95
59829;BME280;45708;51.848;107.620;2022-10-16T09:41:51;96357.56;;;3.34;49.18
59829;BME280;45708;51.848;107.620;2022-10-16T09:47:06;96344.19;;;3.10;49.22
59829;BME280;45708;51.848;107.620;2022-10-16T09:52:14;96349.50;;;2.81;50.00
59829;BME280;45708;51.848;107.620;2022-10-16T09:57:15;96348.94;;;2.58;50.20
59829;BME280;45708;51.848;107.620;2022-10-16T10:02:28;96351.31;;;2.22;51.41
59829;BME280;45708;51.848;107.620;2022-10-16T10:07:32;96350.56;;;1.91;51.78
59829;BME280;45708;51.848;107.620;2022-10-16T10:12:34;96351.34;;;1.72;52.18
59829;BME280;45708;51.848;107.620;2022-10-16T10:17:49;96349.91;;;1.49;52.56
59829;BME280;45708;51.848;107.620;2022-10-16T10:22:50;96338.47;;;1.31;53.00
59829;BME280;45708;51.848;107.620;2022-10-16T10:28:21;96344.00;;;1.16;53.42
59829;BME280;45708;51.848;107.620;2022-10-16T10:39:01;96335.16;;;0.98;53.96
59829;BME280;45708;51.848;107.620;2022-10-16T10:54:57;96324.16;;;0.85;54.53
59829;BME280;45708;51.848;107.620;2022-10-16T11:06:05;96321.19;;;0.48;54.92
59829;BME280;45708;51.848;107.620;2022-10-16T11:11:06;96309.53;;;0.21;55.50
59829;BME280;45708;51.848;107.620;2022-10-16T11:16:30;96327.63;;;0.12;56.74
59829;BME280;45708;51.848;107.620;2022-10-16T11:21:40;96325.16;;;-0.01;56.55
59829;BME280;45708;51.848;107.620;2022-10-16T11:26:45;96321.56;;;-0.10;56.67
59829;BME280;45708;51.848;107.620;2022-10-16T11:31:52;96314.00;;;-0.13;57.07
59829;BME280;45708;51.848;107.620;2022-10-16T11:37:11;96320.88;;;-0.23;57.59
59829;BME280;45708;51.848;107.620;2022-10-16T11:42:16;96316.44;;;-0.43;57.67
59829;BME280;45708;51.848;107.620;2022-10-16T12:09:27;96295.63;;;-0.86;58.69
59829;BME280;45708;51.848;107.620;2022-10-16T12:14:34;96295.78;;;-0.99;59.17
59829;BME280;45708;51.848;107.620;2022-10-16T12:19:35;96288.91;;;-1.23;59.68
59829;BME280;45708;51.848;107.620;2022-10-16T12:24:38;96295.16;;;-1.25;59.64
59829;BME280;45708;51.848;107.620;2022-10-16T12:29:41;96283.03;;;-1.36;60.63
59829;BME280;45708;51.848;107.620;2022-10-16T12:34:44;96287.72;;;-1.52;60.76
59829;BME280;45708;51.848;107.620;2022-10-16T12:39:47;96279.69;;;-1.60;61.52
59829;BME280;45708;51.848;107.620;2022-10-16T12:44:49;96280.63;;;-1.61;61.24
59829;BME280;45708;51.848;107.620;2022-10-16T12:49:54;96265.56;;;-1.56;61.79
59829;BME280;45708;51.848;107.620;2022-10-16T12:54:58;96267.41;;;-1.69;61.04
59829;BME280;45708;51.848;107.620;2022-10-16T13:11:00;96255.22;;;-1.23;61.43
59829;BME280;45708;51.848;107.620;2022-10-16T13:27:25;96249.28;;;-1.69;62.23
59829;BME280;45708;51.848;107.620;2022-10-16T13:32:28;96244.81;;;-1.78;62.68
59829;BME280;45708;51.848;107.620;2022-10-16T13:37:29;96240.19;;;-1.97;62.67
59829;BME280;45708;51.848;107.620;2022-10-16T13:42:30;96252.03;;;-2.06;63.51
59829;BME280;45708;51.848;107.620;2022-10-16T13:47:31;96244.25;;;-2.17;64.05
59829;BME280;45708;51.848;107.620;2022-10-16T13:52:32;96236.41;;;-2.28;64.02
59829;BME280;45708;51.848;107.620;2022-10-16T13:57:33;96227.94;;;-2.30;64.04
59829;BME280;45708;51.848;107.620;2022-10-16T14:02:37;96226.53;;;-2.34;64.00
59829;BME280;45708;51.848;107.620;2022-10-16T14:07:39;96224.09;;;-2.49;63.98
59829;BME280;45708;51.848;107.620;2022-10-16T14:12:40;96224.34;;;-2.52;63.58
59829;BME280;45708;51.848;107.620;2022-10-16T14:17:44;96219.97;;;-2.51;63.79
59829;BME280;45708;51.848;107.620;2022-10-16T14:22:46;96221.25;;;-2.57;64.57
59829;BME280;45708;51.848;107.620;2022-10-16T14:33:04;96206.88;;;-2.61;64.49
59829;BME280;45708;51.848;107.620;2022-10-16T14:38:14;96210.31;;;-2.60;64.65
59829;BME280;45708;51.848;107.620;2022-10-16T14:43:39;96212.72;;;-2.70;66.63
59829;BME280;45708;51.848;107.620;2022-10-16T14:48:47;96210.13;;;-2.70;65.39
59829;BME280;45708;51.848;107.620;2022-10-16T14:53:50;96213.47;;;-2.81;66.55
59829;BME280;45708;51.848;107.620;2022-10-16T14:58:51;96207.47;;;-2.81;65.62
59829;BME280;45708;51.848;107.620;2022-10-16T15:03:53;96204.41;;;-2.86;66.28
59829;BME280;45708;51.848;107.620;2022-10-16T15:08:53;96204.84;;;-2.92;65.89
59829;BME280;45708;51.848;107.620;2022-10-16T15:13:55;96203.19;;;-2.93;65.26
59829;BME280;45708;51.848;107.620;2022-10-16T15:18:57;96203.09;;;-2.92;64.83
59829;BME280;45708;51.848;107.620;2022-10-16T15:23:59;96203.66;;;-2.99;65.91
59829;BME280;45708;51.848;107.620;2022-10-16T15:29:00;96192.72;;;-3.16;65.84
59829;BME280;45708;51.848;107.620;2022-10-16T15:34:01;96180.44;;;-3.25;65.74
59829;BME280;45708;51.848;107.620;2022-10-16T15:39:04;96185.13;;;-3.30;66.25
59829;BME280;45708;51.848;107.620;2022-10-16T15:44:05;96177.28;;;-3.41;66.88
59829;BME280;45708;51.848;107.620;2022-10-16T15:49:06;96168.75;;;-3.54;66.67
59829;BME280;45708;51.848;107.620;2022-10-16T15:54:07;96165.13;;;-3.64;66.66
59829;BME280;45708;51.848;107.620;2022-10-16T15:59:08;96167.72;;;-3.64;66.72
59829;BME280;45708;51.848;107.620;2022-10-16T16:04:09;96159.34;;;-3.68;66.87
59829;BME280;45708;51.848;107.620;2022-10-16T16:09:11;96142.44;;;-3.85;66.91
59829;BME280;45708;51.848;107.620;2022-10-16T16:14:13;96147.94;;;-3.89;67.02
59829;BME280;45708;51.848;107.620;2022-10-16T16:19:14;96144.94;;;-3.96;67.11
59829;BME280;45708;51.848;107.620;2022-10-16T16:24:15;96136.38;;;-3.96;67.32
59829;BME280;45708;51.848;107.620;2022-10-16T16:29:16;96137.09;;;-4.07;67.13
59829;BME280;45708;51.848;107.620;2022-10-16T16:34:17;96137.53;;;-4.13;67.03
59829;BME280;45708;51.848;107.620;2022-10-16T16:39:18;96135.88;;;-4.14;66.95
59829;BME280;45708;51.848;107.620;2022-10-16T16:44:18;96123.91;;;-4.15;66.99
59829;BME280;45708;51.848;107.620;2022-10-16T16:49:19;96127.63;;;-4.19;66.80
59829;BME280;45708;51.848;107.620;2022-10-16T16:54:20;96128.44;;;-4.32;66.82
59829;BME280;45708;51.848;107.620;2022-10-16T16:59:21;96112.03;;;-4.31;66.84
59829;BME280;45708;51.848;107.620;2022-10-16T17:04:22;96112.13;;;-4.45;66.62
59829;BME280;45708;51.848;107.620;2022-10-16T17:09:23;96115.09;;;-4.51;67.43
59829;BME280;45708;51.848;107.620;2022-10-16T17:14:24;96114.50;;;-4.54;67.66
59829;BME280;45708;51.848;107.620;2022-10-16T17:19:25;96105.69;;;-4.65;67.53
59829;BME280;45708;51.848;107.620;2022-10-16T17:24:25;96101.56;;;-4.67;67.79
59829;BME280;45708;51.848;107.620;2022-10-16T17:29:26;96097.13;;;-4.65;67.56
59829;BME280;45708;51.848;107.620;2022-10-16T17:34:27;96094.25;;;-4.73;67.82
59829;BME280;45708;51.848;107.620;2022-10-16T17:39:28;96081.25;;;-4.84;68.65
59829;BME280;45708;51.848;107.620;2022-10-16T17:44:29;96090.03;;;-4.74;68.38
59829;BME280;45708;51.848;107.620;2022-10-16T17:49:30;96084.63;;;-4.84;68.59
59829;BME280;45708;51.848;107.620;2022-10-16T17:54:31;96085.47;;;-4.83;68.75
59829;BME280;45708;51.848;107.620;2022-10-16T17:59:32;96074.63;;;-4.88;68.45
59829;BME280;45708;51.848;107.620;2022-10-16T18:04:33;96081.53;;;-4.89;68.46
59829;BME280;45708;51.848;107.620;2022-10-16T18:09:33;96081.50;;;-5.02;68.93
59829;BME280;45708;51.848;107.620;2022-10-16T18:14:34;96069.44;;;-5.14;68.88
59829;BME280;45708;51.848;107.620;2022-10-16T18:19:35;96039.97;;;-5.49;69.57
59829;BME280;45708;51.848;107.620;2022-10-16T18:24:36;96076.69;;;-5.33;69.40
59829;BME280;45708;51.848;107.620;2022-10-16T18:29:37;96073.00;;;-5.29;69.94
59829;BME280;45708;51.848;107.620;2022-10-16T18:34:37;96064.13;;;-5.25;69.23
59829;BME280;45708;51.848;107.620;2022-10-16T18:39:38;96068.16;;;-5.21;69.44
59829;BME280;45708;51.848;107.620;2022-10-16T18:44:39;96061.03;;;-5.30;70.00
59829;BME280;45708;51.848;107.620;2022-10-16T18:49:40;96059.78;;;-5.37;69.85
59829;BME280;45708;51.848;107.620;2022-10-16T18:54:41;96066.72;;;-5.25;69.33
59829;BME280;45708;51.848;107.620;2022-10-16T18:59:41;96061.28;;;-5.21;69.33
59829;BME280;45708;51.848;107.620;2022-10-16T19:04:42;96060.81;;;-5.40;69.79
59829;BME280;45708;51.848;107.620;2022-10-16T19:09:43;96055.81;;;-5.56;70.01
59829;BME280;45708;51.848;107.620;2022-10-16T19:14:47;96061.25;;;-5.60;69.91
59829;BME280;45708;51.848;107.620;2022-10-16T19:19:50;96059.97;;;-5.67;70.13
59829;BME280;45708;51.848;107.620;2022-10-16T19:24:51;96064.50;;;-5.85;70.92
59829;BME280;45708;51.848;107.620;2022-10-16T19:29:55;96062.03;;;-5.99;71.50
59829;BME280;45708;51.848;107.620;2022-10-16T19:34:55;96057.44;;;-6.08;70.46
59829;BME280;45708;51.848;107.620;2022-10-16T19:39:56;96053.31;;;-6.11;71.77
59829;BME280;45708;51.848;107.620;2022-10-16T19:44:57;96035.78;;;-6.19;71.40
59829;BME280;45708;51.848;107.620;2022-10-16T19:49:58;96045.50;;;-6.09;70.02
59829;BME280;45708;51.848;107.620;2022-10-16T19:54:59;96029.13;;;-6.08;70.63
59829;BME280;45708;51.848;107.620;2022-10-16T19:59:59;96028.59;;;-6.14;70.30
59829;BME280;45708;51.848;107.620;2022-10-16T20:05:00;96015.94;;;-6.17;69.86
59829;BME280;45708;51.848;107.620;2022-10-16T20:10:01;96031.09;;;-6.26;70.88
59829;BME280;45708;51.848;107.620;2022-10-16T20:15:02;96029.53;;;-6.29;70.94
59829;BME280;45708;51.848;107.620;2022-10-16T20:20:04;96019.63;;;-6.35;70.42
59829;BME280;45708;51.848;107.620;2022-10-16T20:25:05;96020.91;;;-6.42;71.58
59829;BME280;45708;51.848;107.620;2022-10-16T20:30:06;96014.13;;;-6.57;70.95
59829;BME280;45708;51.848;107.620;2022-10-16T20:35:07;95998.91;;;-6.75;71.48
59829;BME280;45708;51.848;107.620;2022-10-16T20:40:09;96002.28;;;-6.74;72.48
59829;BME280;45708;51.848;107.620;2022-10-16T20:45:10;96002.38;;;-6.90;72.14
59829;BME280;45708;51.848;107.620;2022-10-16T20:50:11;95996.78;;;-6.96;72.04
59829;BME280;45708;51.848;107.620;2022-10-16T20:55:11;96004.31;;;-6.93;71.99
59829;BME280;45708;51.848;107.620;2022-10-16T21:00:13;95991.34;;;-7.06;73.04
59829;BME280;45708;51.848;107.620;2022-10-16T21:05:14;95991.72;;;-7.12;72.79
59829;BME280;45708;51.848;107.620;2022-10-16T21:10:15;95988.13;;;-7.10;73.61
59829;BME280;45708;51.848;107.620;2022-10-16T21:15:16;95986.94;;;-7.18;73.34
59829;BME280;45708;51.848;107.620;2022-10-16T21:20:16;95977.50;;;-7.18;73.38
59829;BME280;45708;51.848;107.620;2022-10-16T21:25:17;95985.38;;;-7.07;72.79
59829;BME280;45708;51.848;107.620;2022-10-16T21:30:18;95976.13;;;-7.09;72.33
59829;BME280;45708;51.848;107.620;2022-10-16T21:35:19;95985.28;;;-7.05;73.19
59829;BME280;45708;51.848;107.620;2022-10-16T21:40:20;95976.09;;;-7.23;73.29
59829;BME280;45708;51.848;107.620;2022-10-16T21:45:20;95976.00;;;-7.36;73.17
59829;BME280;45708;51.848;107.620;2022-10-16T21:50:21;95966.50;;;-7.50;73.26
59829;BME280;45708;51.848;107.620;2022-10-16T21:55:22;95966.50;;;-7.50;73.60
59829;BME280;45708;51.848;107.620;2022-10-16T22:00:23;95973.38;;;-7.50;73.87
59829;BME280;45708;51.848;107.620;2022-10-16T22:05:24;95966.78;;;-7.54;73.72
59829;BME280;45708;51.848;107.620;2022-10-16T22:10:25;95975.47;;;-7.57;75.09
59829;BME280;45708;51.848;107.620;2022-10-16T22:15:25;95963.56;;;-7.58;74.42
59829;BME280;45708;51.848;107.620;2022-10-16T22:20:26;95964.22;;;-7.54;75.18
59829;BME280;45708;51.848;107.620;2022-10-16T22:25:27;95966.03;;;-7.56;75.34
59829;BME280;45708;51.848;107.620;2022-10-16T22:30:28;95957.75;;;-7.61;74.81
59829;BME280;45708;51.848;107.620;2022-10-16T22:35:29;95950.06;;;-7.61;74.94
59829;BME280;45708;51.848;107.620;2022-10-16T22:40:32;95963.16;;;-7.66;75.17
59829;BME280;45708;51.848;107.620;2022-10-16T22:45:34;95962.06;;;-7.62;74.82
59829;BME280;45708;51.848;107.620;2022-10-16T22:50:35;95955.47;;;-7.66;73.74
59829;BME280;45708;51.848;107.620;2022-10-16T22:55:36;95958.59;;;-7.61;73.83
59829;BME280;45708;51.848;107.620;2022-10-16T23:00:37;95952.34;;;-7.71;74.13
59829;BME280;45708;51.848;107.620;2022-10-16T23:05:41;95952.09;;;-7.82;73.90
59829;BME280;45708;51.848;107.620;2022-10-16T23:10:45;95953.19;;;-7.86;74.93
59829;BME280;45708;51.848;107.620;2022-10-16T23:15:45;95936.50;;;-7.93;74.47
59829;BME280;45708;51.848;107.620;2022-10-16T23:20:49;95933.03;;;-7.92;75.83
59829;BME280;45708;51.848;107.620;2022-10-16T23:25:50;95925.72;;;-7.84;75.26
59829;BME280;45708;51.848;107.620;2022-10-16T23:30:51;95936.94;;;-7.71;75.20
59829;BME280;45708;51.848;107.620;2022-10-16T23:35:52;95930.47;;;-7.62;75.45
59829;BME280;45708;51.848;107.620;2022-10-16T23:40:52;95921.97;;;-7.49;74.39
59829;BME280;45708;51.848;107.620;2022-10-16T23:45:53;95928.59;;;-7.30;73.35
59829;BME280;45708;51.848;107.620;2022-10-16T23:50:54;95935.41;;;-7.15;73.34
59829;BME280;45708;51.848;107.620;2022-10-16T23:55:55;95934.09;;;-6.65;73.64
